Time;durP1;ratioP1;P1;durP2;ratioP2;P2;SDS_P1;SDS_P2;PMS_P1;PMS_P2;Temp;Humidity;BMP_temperature;BMP_pressure;BME280_temperature;BME280_humidity;BME280_pressure;Samples;Min_cycle;Max_cycle;Signal;HPM_P1;HPM_P2
2021/06/03 00:00:15;;;;;;;3.15;1.22;;;;;;;12.18;100.00;100513.19;1735433;82;20968;-38
2021/06/03 00:02:44;;;;;;;4.90;1.40;;;;;;;12.19;100.00;100522.24;1735514;82;21782;-40
2021/06/03 00:05:10;;;;;;;7.72;1.52;;;;;;;12.18;100.00;100518.37;1735888;81;20953;-39
2021/06/03 00:07:37;;;;;;;3.67;1.42;;;;;;;12.17;100.00;100518.84;1749281;82;20967;-40
2021/06/03 00:10:07;;;;;;;6.72;1.30;;;;;;;12.21;100.00;100517.00;1749233;82;20940;-38
2021/06/03 00:12:34;;;;;;;3.17;1.50;;;;;;;12.24;100.00;100515.63;1749088;82;20976;-39
2021/06/03 00:15:01;;;;;;;2.30;1.32;;;;;;;12.29;100.00;100509.90;1749126;82;21144;-41
2021/06/03 00:17:27;;;;;;;5.03;1.35;;;;;;;12.30;99.96;100510.73;1749197;82;21007;-40
2021/06/03 00:19:53;;;;;;;5.28;2.05;;;;;;;12.32;99.66;100511.12;1749324;80;20928;-38
2021/06/03 00:22:22;;;;;;;5.40;1.67;;;;;;;12.32;99.74;100511.12;1749306;80;21003;-39
2021/06/03 00:24:48;;;;;;;2.52;1.30;;;;;;;12.33;99.15;100510.22;1749358;82;21015;-41
2021/06/03 00:27:16;;;;;;;3.58;1.45;;;;;;;12.31;98.14;100504.66;1749384;82;22762;-38
2021/06/03 00:29:47;;;;;;;4.75;1.92;;;;;;;12.32;97.92;100511.55;1749191;82;22190;-38
2021/06/03 00:32:13;;;;;;;3.90;1.75;;;;;;;12.27;97.09;100505.19;1749356;82;20941;-38
2021/06/03 00:34:41;;;;;;;9.03;1.60;;;;;;;12.24;96.57;100509.14;1749400;80;21012;-38
2021/06/03 00:37:08;;;;;;;5.53;1.80;;;;;;;12.25;96.00;100508.70;1749220;82;20980;-40
2021/06/03 00:39:35;;;;;;;1.70;1.60;;;;;;;12.24;95.42;100515.63;1749207;82;22013;-40
2021/06/03 00:42:02;;;;;;;7.10;2.25;;;;;;;12.24;94.84;100515.63;1749095;82;21238;-38
2021/06/03 00:44:29;;;;;;;1.72;1.62;;;;;;;12.24;95.24;100505.24;1749279;82;20955;-39
2021/06/03 00:46:55;;;;;;;12.75;2.05;;;;;;;12.23;94.96;100515.68;1749342;82;21497;-38
2021/06/03 00:49:22;;;;;;;5.95;1.52;;;;;;;12.20;94.67;100511.41;1749440;82;21481;-40
2021/06/03 00:51:51;;;;;;;1.95;1.75;;;;;;;12.18;94.16;100507.99;1749337;82;21807;-39
2021/06/03 00:54:17;;;;;;;4.33;1.47;;;;;;;12.18;93.72;100512.75;1749572;82;21481;-40
2021/06/03 00:56:46;;;;;;;5.50;1.40;;;;;;;12.19;93.25;100512.30;1749208;82;21575;-40
2021/06/03 00:59:14;;;;;;;1.62;1.40;;;;;;;12.19;93.10;100507.10;1749061;82;20995;-39
2021/06/03 01:01:42;;;;;;;4.17;1.70;;;;;;;12.22;93.46;100505.73;1749186;82;21010;-39
2021/06/03 01:04:10;;;;;;;3.30;1.50;;;;;;;12.21;94.03;100513.97;1749271;82;20896;-38
2021/06/03 01:06:37;;;;;;;2.10;1.52;;;;;;;12.18;92.83;100506.27;1749003;82;20995;-38
2021/06/03 01:09:11;;;;;;;5.08;1.42;;;;;;;12.22;93.55;100508.32;1749281;82;20972;-38
2021/06/03 01:11:44;;;;;;;7.53;2.00;;;;;;;12.20;93.39;100499.73;1749352;82;20959;-39
2021/06/03 01:14:25;;;;;;;1.90;1.42;;;;;;;12.21;92.17;100498.83;1749283;80;20893;-39
2021/06/03 01:16:56;;;;;;;4.80;1.50;;;;;;;12.24;92.95;100496.62;1749311;82;21030;-39
2021/06/03 01:19:33;;;;;;;11.45;1.70;;;;;;;12.22;93.01;100497.94;1749186;82;21466;-39
2021/06/03 01:22:24;;;;;;;2.77;1.75;;;;;;;12.19;92.56;100495.42;1749380;82;20952;-38
2021/06/03 01:24:56;;;;;;;7.17;1.70;;;;;;;12.16;91.63;100503.29;1739487;82;20991;-38
2021/06/03 01:27:27;;;;;;;8.90;1.37;;;;;;;12.14;92.20;100500.75;1721862;82;21541;-38
2021/06/03 01:30:04;;;;;;;9.88;2.17;;;;;;;12.12;92.31;100496.47;1749134;82;21138;-39
2021/06/03 01:32:35;;;;;;;5.85;1.67;;;;;;;12.09;91.00;100493.50;1748991;82;20945;-38
2021/06/03 01:35:07;;;;;;;3.67;1.67;;;;;;;12.10;90.43;100491.31;1746191;81;21367;-38
2021/06/03 01:37:33;;;;;;;2.27;1.70;;;;;;;12.13;91.48;100493.86;1748032;82;21019;-38
2021/06/03 01:40:00;;;;;;;5.53;1.70;;;;;;;12.16;90.25;100494.20;1749320;82;20932;-39
2021/06/03 01:42:27;;;;;;;4.90;1.72;;;;;;;12.17;90.10;100489.42;1749264;82;21516;-38
2021/06/03 01:44:54;;;;;;;1.70;1.55;;;;;;;12.17;91.63;100495.91;1749108;82;21572;-39
2021/06/03 01:47:21;;;;;;;3.87;1.55;;;;;;;12.13;91.19;100494.28;1697942;82;21489;-39
2021/06/03 01:49:49;;;;;;;9.90;1.82;;;;;;;12.11;89.62;100492.17;1749256;82;21465;-39
2021/06/03 01:52:16;;;;;;;7.37;1.67;;;;;;;12.10;89.46;100495.66;1698023;82;21481;-38
2021/06/03 01:54:45;;;;;;;3.58;1.72;;;;;;;12.05;89.22;100490.14;1749263;82;21541;-39
2021/06/03 01:57:13;;;;;;;6.15;1.37;;;;;;;12.02;88.87;100485.46;1749168;82;20983;-39
2021/06/03 01:59:43;;;;;;;3.98;1.50;;;;;;;12.02;88.91;100488.05;1748827;81;21039;-38
2021/06/03 02:02:10;;;;;;;4.95;1.70;;;;;;;11.97;88.17;100485.53;1749202;82;20968;-39
2021/06/03 02:04:37;;;;;;;7.83;1.90;;;;;;;11.95;88.38;100489.91;1749254;82;21003;-39
2021/06/03 02:07:05;;;;;;;2.35;1.65;;;;;;;11.94;88.85;100483.02;1741272;81;21000;-39
2021/06/03 02:09:32;;;;;;;3.35;1.82;;;;;;;11.90;88.07;100486.57;1735214;81;20926;-38
2021/06/03 02:12:01;;;;;;;6.22;1.60;;;;;;;11.90;87.87;100489.16;1735279;82;21565;-40
2021/06/03 02:14:35;;;;;;;9.15;1.75;;;;;;;11.90;87.93;100486.14;1735094;82;20968;-39
2021/06/03 02:17:14;;;;;;;3.55;2.12;;;;;;;11.87;87.91;100479.73;1735381;82;21502;-40
2021/06/03 02:19:54;;;;;;;9.05;1.77;;;;;;;11.83;87.81;100477.23;1735159;82;21486;-38
2021/06/03 02:22:22;;;;;;;3.40;1.60;;;;;;;11.77;87.99;100477.80;1735417;82;21020;-38
2021/06/03 02:24:49;;;;;;;2.85;1.55;;;;;;;11.70;88.20;100476.20;1735127;82;21019;-39
2021/06/03 02:27:17;;;;;;;4.35;1.72;;;;;;;11.65;87.86;100476.77;1735110;82;21641;-40
2021/06/03 02:29:44;;;;;;;4.78;1.65;;;;;;;11.62;87.70;100472.95;1735191;82;20948;-40
2021/06/03 02:32:15;;;;;;;4.37;1.72;;;;;;;11.59;87.40;100479.04;1734975;82;21173;-40
2021/06/03 02:34:47;;;;;;;2.98;1.70;;;;;;;11.59;87.23;100478.20;1714734;82;20953;-39
2021/06/03 02:37:15;;;;;;;2.05;1.35;;;;;;;11.57;87.34;100481.28;1714144;82;21553;-39
2021/06/03 02:39:48;;;;;;;4.85;1.70;;;;;;;11.57;87.20;100479.98;1735206;82;20925;-39
2021/06/03 02:42:17;;;;;;;3.20;1.70;;;;;;;11.57;87.27;100483.87;1735480;82;20956;-38
2021/06/03 02:44:45;;;;;;;9.73;1.85;;;;;;;11.56;87.14;100484.76;1735174;82;21257;-39
2021/06/03 02:47:12;;;;;;;4.03;1.77;;;;;;;11.58;87.62;100481.69;1735228;82;21083;-40
2021/06/03 02:49:39;;;;;;;9.83;1.70;;;;;;;11.57;87.79;100482.11;1735139;82;20972;-39
2021/06/03 02:52:07;;;;;;;4.92;1.60;;;;;;;11.56;88.69;100479.11;1735432;82;21012;-39
2021/06/03 02:54:34;;;;;;;9.85;1.75;;;;;;;11.50;88.51;100481.84;1735277;82;21039;-38
2021/06/03 02:57:01;;;;;;;4.95;1.50;;;;;;;11.46;88.45;100478.91;1735321;82;21131;-39
2021/06/03 02:59:29;;;;;;;8.23;1.95;;;;;;;11.43;88.19;100482.88;1735299;82;21027;-40
2021/06/03 03:01:56;;;;;;;4.37;1.60;;;;;;;11.40;88.17;100486.38;1735102;81;21546;-39
2021/06/03 03:04:23;;;;;;;13.85;1.95;;;;;;;11.38;88.33;100482.13;1735411;82;21505;-41
2021/06/03 03:06:52;;;;;;;4.17;1.92;;;;;;;11.35;88.34;100480.44;1739812;81;20975;-39
2021/06/03 03:09:19;;;;;;;2.77;1.62;;;;;;;11.29;88.18;100482.70;1749262;82;21107;-39
2021/06/03 03:11:52;;;;;;;3.12;1.70;;;;;;;11.25;88.65;100486.25;1749306;82;20968;-39
2021/06/03 03:14:17;;;;;;;8.18;2.15;;;;;;;11.17;89.12;100478.63;1749104;80;21478;-39
2021/06/03 03:16:46;;;;;;;11.40;2.05;;;;;;;11.15;89.20;100484.75;1749271;82;21433;-40
2021/06/03 03:19:13;;;;;;;4.08;1.90;;;;;;;11.08;89.40;100476.24;1749458;82;21548;-39
2021/06/03 03:21:40;;;;;;;3.20;1.77;;;;;;;11.06;89.53;100483.19;1749327;82;22030;-40
2021/06/03 03:24:07;;;;;;;5.80;2.00;;;;;;;11.02;89.53;100475.91;1749397;82;21557;-39
2021/06/03 03:26:35;;;;;;;5.37;1.85;;;;;;;10.99;89.43;100479.00;1749285;82;20952;-40
2021/06/03 03:29:03;;;;;;;6.60;1.70;;;;;;;10.93;89.65;100474.81;1749365;82;20908;-39
2021/06/03 03:31:31;;;;;;;2.47;1.75;;;;;;;10.92;89.83;100481.71;1749310;80;21059;-39
2021/06/03 03:34:02;;;;;;;4.53;1.85;;;;;;;10.90;89.81;100478.30;1749349;80;21842;-40
2021/06/03 03:36:27;;;;;;;10.35;1.90;;;;;;;10.87;90.10;100473.64;1749132;82;20932;-40
2021/06/03 03:38:54;;;;;;;4.92;1.65;;;;;;;10.86;90.46;100479.67;1749385;82;20893;-40
2021/06/03 03:41:22;;;;;;;5.65;2.10;;;;;;;10.80;90.67;100479.80;1749409;82;21553;-39
2021/06/03 03:43:50;;;;;;;5.62;2.00;;;;;;;10.77;91.05;100480.73;1749315;82;21007;-39
2021/06/03 03:46:19;;;;;;;8.50;1.80;;;;;;;10.75;91.30;100489.81;1749523;82;21074;-39
2021/06/03 03:48:46;;;;;;;2.83;1.85;;;;;;;10.72;91.39;100486.41;1749171;82;21607;-39
2021/06/03 03:51:14;;;;;;;3.52;1.87;;;;;;;10.68;91.62;100488.66;1749552;80;21741;-39
2021/06/03 03:53:44;;;;;;;5.45;1.95;;;;;;;10.63;92.03;100487.00;1749197;82;21078;-39
2021/06/03 03:56:12;;;;;;;5.47;2.05;;;;;;;10.60;92.40;100493.53;1749376;81;21031;-38
2021/06/03 03:58:42;;;;;;;7.22;2.02;;;;;;;10.56;92.46;100491.89;1749188;80;21135;-38
2021/06/03 04:01:10;;;;;;;7.33;1.90;;;;;;;10.50;92.82;100494.59;1749100;80;21537;-38
2021/06/03 04:03:38;;;;;;;8.38;1.90;;;;;;;10.49;93.49;100492.43;1749305;80;20988;-40
2021/06/03 04:06:07;;;;;;;4.53;1.90;;;;;;;10.39;93.73;100499.92;1749535;82;20944;-39
2021/06/03 04:08:35;;;;;;;12.80;1.98;;;;;;;10.34;93.77;100503.87;1736589;81;20905;-39
2021/06/03 04:11:02;;;;;;;2.27;1.75;;;;;;;10.31;93.88;100499.17;1735216;82;21132;-39
2021/06/03 04:13:32;;;;;;;2.15;1.67;;;;;;;10.27;94.07;100499.68;1735170;82;21558;-39
2021/06/03 04:16:03;;;;;;;10.28;1.90;;;;;;;10.22;94.32;100493.70;1735203;82;21063;-39
2021/06/03 04:18:31;;;;;;;9.38;2.45;;;;;;;10.19;94.69;100497.64;1735211;82;20969;-38
2021/06/03 04:20:59;;;;;;;2.17;1.98;;;;;;;10.14;94.81;100495.14;1735228;82;20972;-39
2021/06/03 04:23:26;;;;;;;6.03;1.95;;;;;;;10.11;94.82;100500.38;1735201;81;21219;-39
2021/06/03 04:25:54;;;;;;;3.40;1.70;;;;;;;10.05;94.82;100498.73;1735244;82;21481;-38
2021/06/03 04:28:20;;;;;;;4.10;2.20;;;;;;;10.03;95.07;100497.03;1735391;82;20964;-39
2021/06/03 04:30:47;;;;;;;5.17;2.10;;;;;;;10.01;95.22;100506.55;1735261;81;20977;-38
2021/06/03 04:33:20;;;;;;;1.67;1.57;;;;;;;10.01;95.53;100509.13;1735244;82;20956;-39
2021/06/03 04:35:44;;;;;;;8.85;2.12;;;;;;;10.00;95.68;100519.93;1734989;82;21927;-38
2021/06/03 04:38:11;;;;;;;7.25;1.80;;;;;;;9.97;95.97;100513.48;1735320;82;21451;-38
2021/06/03 04:40:38;;;;;;;4.75;1.72;;;;;;;9.97;96.16;100517.36;1735335;82;21000;-39
2021/06/03 04:43:04;;;;;;;4.25;2.20;;;;;;;9.97;96.30;100519.95;1735226;82;20949;-39
2021/06/03 04:45:35;;;;;;;8.98;2.30;;;;;;;9.92;96.64;100518.75;1735348;82;20956;-40
2021/06/03 04:47:59;;;;;;;5.75;2.00;;;;;;;9.92;97.00;100517.88;1734875;82;21975;-38
2021/06/03 04:50:26;;;;;;;4.65;1.90;;;;;;;9.90;97.22;100513.17;1735209;82;21497;-39
2021/06/03 04:52:53;;;;;;;9.08;2.10;;;;;;;9.92;97.36;100512.70;1735249;81;21493;-39
2021/06/03 04:55:22;;;;;;;4.75;2.15;;;;;;;9.96;97.43;100505.77;1735271;82;21498;-39
2021/06/03 04:57:49;;;;;;;7.03;2.25;;;;;;;9.96;97.55;100505.77;1735506;82;20968;-38
2021/06/03 05:00:21;;;;;;;4.10;1.72;;;;;;;10.00;97.69;100504.41;1735256;82;21135;-39
2021/06/03 05:02:48;;;;;;;5.65;2.10;;;;;;;10.02;97.75;100506.53;1735500;82;21028;-38
2021/06/03 05:05:15;;;;;;;6.50;2.20;;;;;;;10.03;97.86;100501.78;1735404;82;21489;-39
2021/06/03 05:07:42;;;;;;;9.85;2.55;;;;;;;10.05;98.02;100500.02;1740543;81;21521;-39
2021/06/03 05:10:11;;;;;;;2.27;2.00;;;;;;;10.09;98.04;100499.97;1749358;82;21529;-38
2021/06/03 05:12:37;;;;;;;3.83;2.08;;;;;;;10.06;98.07;100499.56;1749177;80;21816;-39
2021/06/03 05:15:06;;;;;;;8.13;2.45;;;;;;;10.06;98.31;100506.03;1749219;82;21032;-39
2021/06/03 05:17:34;;;;;;;9.60;2.25;;;;;;;10.09;98.47;100508.56;1749228;82;20945;-39
2021/06/03 05:20:09;;;;;;;9.80;2.30;;;;;;;10.16;98.51;100517.96;1749208;82;20987;-38
2021/06/03 05:22:36;;;;;;;3.00;2.27;;;;;;;10.21;98.74;100520.03;1749264;82;21533;-38
2021/06/03 05:25:09;;;;;;;4.33;2.37;;;;;;;10.24;98.94;100518.27;1749198;82;21825;-39
2021/06/03 05:27:36;;;;;;;3.87;1.82;;;;;;;10.26;98.96;100519.09;1748763;82;21000;-39
2021/06/03 05:30:05;;;;;;;3.52;2.08;;;;;;;10.27;98.85;100513.05;1749204;80;20925;-39
2021/06/03 05:32:33;;;;;;;5.83;2.25;;;;;;;10.29;98.87;100511.28;1749143;82;21003;-39
2021/06/03 05:35:00;;;;;;;7.37;2.37;;;;;;;10.28;98.64;100520.79;1749297;82;20944;-40
2021/06/03 05:37:28;;;;;;;6.33;1.92;;;;;;;10.30;98.60;100517.73;1749314;82;21160;-39
2021/06/03 05:39:55;;;;;;;6.37;2.08;;;;;;;10.28;98.29;100520.79;1749181;82;20944;-40
2021/06/03 05:42:22;;;;;;;11.35;1.90;;;;;;;10.26;98.13;100522.98;1749168;82;20987;-39
2021/06/03 05:44:50;;;;;;;5.92;2.00;;;;;;;10.24;97.88;100515.69;1749116;82;21535;-37
2021/06/03 05:47:17;;;;;;;8.28;2.30;;;;;;;10.25;97.59;100515.67;1749194;82;21055;-39
2021/06/03 05:49:44;;;;;;;9.20;2.52;;;;;;;10.28;97.44;100509.58;1749243;82;21152;-39
2021/06/03 05:52:11;;;;;;;20.37;2.42;;;;;;;10.29;97.53;100519.04;1749041;82;21011;-39
2021/06/03 05:54:38;;;;;;;5.65;2.00;;;;;;;10.35;97.69;100517.22;1749166;82;21007;-39
2021/06/03 05:57:06;;;;;;;5.70;2.10;;;;;;;10.32;97.51;100512.09;1749191;82;20996;-39
2021/06/03 05:59:32;;;;;;;7.30;2.25;;;;;;;10.32;97.31;100503.04;1749288;82;21414;-39
2021/06/03 06:02:04;;;;;;;2.55;2.00;;;;;;;10.34;96.95;100507.75;1749347;80;21156;-39
2021/06/03 06:06:55;;;;;;;5.75;2.15;;;;;;;10.43;96.95;100511.08;1749405;82;20991;-39
2021/06/03 06:09:24;;;;;;;3.72;2.00;;;;;;;10.43;96.75;100508.07;1735775;81;20901;-40
2021/06/03 06:11:51;;;;;;;3.40;1.85;;;;;;;10.44;96.83;100511.07;1735139;82;21000;-39
2021/06/03 06:14:18;;;;;;;4.80;2.02;;;;;;;10.49;96.86;100517.47;1735165;81;21061;-38
2021/06/03 06:16:46;;;;;;;5.50;2.00;;;;;;;10.47;96.67;100512.31;1735188;81;20976;-38
2021/06/03 06:19:12;;;;;;;10.85;2.72;;;;;;;10.48;96.43;100519.61;1735310;82;21004;-39
2021/06/03 06:21:41;;;;;;;2.17;2.00;;;;;;;10.52;96.62;100516.55;1735173;81;20968;-39
2021/06/03 06:24:07;;;;;;;3.20;2.30;;;;;;;10.51;96.45;100524.77;1735320;81;22166;-39
2021/06/03 06:26:35;;;;;;;3.37;2.17;;;;;;;10.53;96.25;100526.89;1735259;82;21193;-39
2021/06/03 06:29:03;;;;;;;9.58;2.30;;;;;;;10.56;96.36;100537.19;1735300;82;20976;-39
2021/06/03 06:31:30;;;;;;;7.00;2.08;;;;;;;10.56;96.22;100537.19;1735343;82;20901;-39
2021/06/03 06:33:57;;;;;;;2.40;2.00;;;;;;;10.57;96.06;100522.49;1735305;82;21471;-39
2021/06/03 06:36:24;;;;;;;3.33;1.70;;;;;;;10.57;95.53;100525.08;1735480;82;21032;-40
2021/06/03 06:38:52;;;;;;;4.42;1.90;;;;;;;10.55;95.40;100529.01;1735345;82;21932;-39
2021/06/03 06:41:18;;;;;;;4.65;1.90;;;;;;;10.54;94.94;100538.08;1735287;82;20918;-38
2021/06/03 06:43:44;;;;;;;11.18;1.95;;;;;;;10.49;94.81;100537.72;1735434;82;20924;-39
2021/06/03 06:46:11;;;;;;;3.20;2.05;;;;;;;10.47;94.94;100534.30;1735282;82;20992;-39
2021/06/03 06:48:38;;;;;;;6.80;2.08;;;;;;;10.49;95.12;100535.59;1735265;82;20968;-39
2021/06/03 06:51:05;;;;;;;2.90;2.12;;;;;;;10.46;95.01;100535.61;1735432;82;22413;-39
2021/06/03 06:53:31;;;;;;;4.83;2.08;;;;;;;10.46;95.17;100539.49;1735330;82;20948;-40
2021/06/03 06:55:58;;;;;;;3.02;2.00;;;;;;;10.47;94.90;100538.19;1735318;82;20925;-38
2021/06/03 06:58:26;;;;;;;15.60;2.20;;;;;;;10.51;94.87;100540.30;1735370;82;21000;-38
2021/06/03 07:00:55;;;;;;;10.40;2.25;;;;;;;10.52;94.85;100543.72;1735368;82;21467;-39
2021/06/03 07:03:22;;;;;;;2.42;2.22;;;;;;;10.54;94.94;100540.66;1735294;82;21347;-39
2021/06/03 07:05:49;;;;;;;4.87;2.30;;;;;;;10.53;94.73;100538.53;1735198;82;20945;-37
2021/06/03 07:08:16;;;;;;;8.15;2.10;;;;;;;10.55;94.59;100540.66;1735284;82;20969;-38
2021/06/03 07:10:43;;;;;;;7.25;1.85;;;;;;;10.56;94.37;100547.53;1735248;82;21004;-38
2021/06/03 07:13:10;;;;;;;3.30;2.35;;;;;;;10.60;94.42;100549.61;1735285;82;20877;-38
2021/06/03 07:15:36;;;;;;;2.92;1.80;;;;;;;10.63;94.74;100556.06;1735216;82;21014;-39
2021/06/03 07:18:04;;;;;;;3.58;1.72;;;;;;;10.64;94.50;100548.25;1735153;82;21438;-39
2021/06/03 07:20:34;;;;;;;8.75;2.35;;;;;;;10.69;94.13;100550.77;1735367;82;20894;-39
2021/06/03 07:23:03;;;;;;;6.17;1.85;;;;;;;10.73;94.06;100550.25;1735547;81;21533;-39
2021/06/03 07:25:30;;;;;;;6.33;2.62;;;;;;;10.77;94.05;100557.11;1735291;82;20964;-38
2021/06/03 07:27:57;;;;;;;4.90;2.22;;;;;;;10.80;94.19;100559.64;1735252;82;21142;-38
2021/06/03 07:30:25;;;;;;;7.60;2.10;;;;;;;10.85;93.69;100553.94;1735166;82;21031;-38
2021/06/03 07:32:53;;;;;;;4.28;2.10;;;;;;;10.87;93.70;100553.47;1735575;82;20949;-38
2021/06/03 07:35:21;;;;;;;2.50;2.12;;;;;;;10.92;93.77;100558.58;1735199;82;21003;-40
2021/06/03 07:37:48;;;;;;;3.35;2.20;;;;;;;10.93;93.93;100558.98;1735333;82;21002;-40
2021/06/03 07:40:20;;;;;;;7.22;2.50;;;;;;;10.99;93.88;100557.57;1735342;82;21572;-38
2021/06/03 07:42:48;;;;;;;21.33;2.75;;;;;;;11.01;93.51;100554.50;1734127;82;21680;-40
2021/06/03 07:45:15;;;;;;;8.03;2.30;;;;;;;11.07;93.49;100558.73;1735345;82;21635;-40
2021/06/03 07:47:42;;;;;;;8.23;2.95;;;;;;;11.11;93.54;100557.78;1735118;82;20956;-40
2021/06/03 07:50:11;;;;;;;3.33;2.20;;;;;;;11.17;93.68;100568.48;1735247;81;21498;-39
2021/06/03 07:52:37;;;;;;;4.05;2.10;;;;;;;11.20;93.67;100560.64;1735190;82;21135;-38
2021/06/03 07:55:06;;;;;;;3.83;2.05;;;;;;;11.25;93.48;100570.92;1735168;82;20999;-40
2021/06/03 07:57:33;;;;;;;5.08;2.10;;;;;;;11.28;93.41;100579.47;1735371;81;20933;-39
2021/06/03 08:00:00;;;;;;;10.85;2.12;;;;;;;11.34;93.07;100575.45;1735505;82;21495;-39
2021/06/03 08:02:27;;;;;;;6.95;2.17;;;;;;;11.45;93.29;100570.06;1735310;82;20948;-39
2021/06/03 08:04:53;;;;;;;7.90;2.27;;;;;;;11.53;92.82;100568.62;1735400;82;21132;-39
2021/06/03 08:07:20;;;;;;;3.25;1.90;;;;;;;11.62;91.99;100582.70;1735337;82;20925;-40
2021/06/03 08:09:46;;;;;;;5.87;2.20;;;;;;;11.74;91.27;100583.32;1746663;81;20972;-39
2021/06/03 08:12:13;;;;;;;5.87;2.47;;;;;;;11.84;91.06;100588.70;1749334;80;21000;-39
2021/06/03 08:14:40;;;;;;;3.58;2.10;;;;;;;11.93;90.81;100607.11;1749271;82;20937;-39
2021/06/03 08:17:07;;;;;;;2.45;1.87;;;;;;;12.00;90.12;100591.84;1749204;82;21178;-40
2021/06/03 08:19:34;;;;;;;5.10;2.22;;;;;;;12.06;89.60;100598.22;1749251;82;21028;-39
2021/06/03 08:22:02;;;;;;;3.37;1.95;;;;;;;12.13;89.02;100594.19;1749200;82;20972;-39
2021/06/03 08:24:29;;;;;;;3.20;1.90;;;;;;;12.20;88.51;100595.31;1749302;80;20968;-40
2021/06/03 08:26:55;;;;;;;5.28;2.10;;;;;;;12.27;88.02;100595.16;1749380;82;20952;-39
2021/06/03 08:29:22;;;;;;;7.15;2.17;;;;;;;12.33;87.69;100598.47;1749346;82;21127;-39
2021/06/03 08:31:50;;;;;;;4.20;1.92;;;;;;;12.38;86.96;100607.47;1749255;82;21538;-40
2021/06/03 08:34:19;;;;;;;7.72;2.47;;;;;;;12.42;86.51;100604.33;1749275;82;20896;-39
2021/06/03 08:36:46;;;;;;;4.72;2.25;;;;;;;12.49;86.97;100607.18;1749364;82;21533;-40
2021/06/03 08:39:13;;;;;;;14.80;2.60;;;;;;;12.49;86.28;100619.73;1749251;80;21359;-40
2021/06/03 08:41:41;;;;;;;3.35;2.10;;;;;;;12.53;85.63;100607.54;1749238;82;21922;-40
2021/06/03 08:44:08;;;;;;;4.00;2.20;;;;;;;12.57;84.90;100621.28;1749212;80;20960;-40
2021/06/03 08:46:35;;;;;;;5.28;2.40;;;;;;;12.60;85.24;100619.91;1749188;82;20921;-40
2021/06/03 08:49:04;;;;;;;10.20;2.92;;;;;;;12.65;84.93;100613.72;1749232;82;20936;-39
2021/06/03 08:51:31;;;;;;;4.08;2.27;;;;;;;12.62;84.13;100611.20;1749262;82;20984;-39
2021/06/03 08:53:58;;;;;;;5.67;1.90;;;;;;;12.61;83.98;100612.09;1749264;82;21072;-39
2021/06/03 08:56:25;;;;;;;2.35;2.00;;;;;;;12.61;83.81;100615.98;1749182;82;21015;-38
2021/06/03 08:58:57;;;;;;;9.43;2.00;;;;;;;12.59;83.12;100609.98;1749181;80;20991;-38
2021/06/03 09:01:24;;;;;;;4.35;2.20;;;;;;;12.60;83.83;100614.70;1749160;82;20932;-39
2021/06/03 09:03:52;;;;;;;2.90;2.37;;;;;;;12.59;83.29;100610.41;1749330;82;20987;-37
2021/06/03 09:06:19;;;;;;;3.92;2.35;;;;;;;12.62;83.63;100607.73;1749231;82;21149;-39
2021/06/03 09:08:56;;;;;;;2.45;1.92;;;;;;;12.60;83.70;100611.69;1745605;80;21043;-38
2021/06/03 09:11:23;;;;;;;11.10;2.00;;;;;;;12.59;83.60;100608.68;1735294;82;21056;-38
2021/06/03 09:13:56;;;;;;;2.35;2.15;;;;;;;12.60;83.01;100609.52;1735252;82;21028;-37
2021/06/03 09:16:28;;;;;;;3.98;2.33;;;;;;;12.58;83.07;100608.70;1735205;81;21505;-39
2021/06/03 09:19:13;;;;;;;7.35;2.35;;;;;;;12.61;82.83;100613.81;1735223;82;21124;-39
2021/06/03 09:21:53;;;;;;;5.85;1.95;;;;;;;12.68;82.88;100613.23;1735165;81;21526;-38
2021/06/03 09:24:21;;;;;;;2.83;2.27;;;;;;;12.73;82.73;100623.05;1735252;82;20924;-38
2021/06/03 09:26:52;;;;;;;7.37;1.80;;;;;;;12.79;82.10;100628.13;1735042;82;20968;-38
2021/06/03 09:29:24;;;;;;;3.50;1.90;;;;;;;12.86;81.85;100621.00;1735252;82;21027;-37
2021/06/03 09:31:52;;;;;;;3.92;1.77;;;;;;;12.90;81.52;100606.61;1735164;82;21127;-39
2021/06/03 09:34:21;;;;;;;6.28;1.90;;;;;;;12.94;81.39;100630.31;1735211;82;21550;-38
2021/06/03 09:36:54;;;;;;;4.70;2.55;;;;;;;12.99;80.54;100619.81;1735122;82;20997;-38
2021/06/03 09:39:32;;;;;;;3.77;1.80;;;;;;;13.05;80.00;100627.91;1735254;81;21032;-39
2021/06/03 09:42:08;;;;;;;5.40;2.02;;;;;;;13.08;79.28;100634.31;1735385;82;21523;-39
2021/06/03 09:44:47;;;;;;;3.58;2.12;;;;;;;13.10;79.82;100627.76;1735559;82;21116;-38
2021/06/03 09:47:17;;;;;;;12.75;2.00;;;;;;;13.15;79.80;100632.41;1735083;82;20992;-38
2021/06/03 09:49:57;;;;;;;6.62;1.95;;;;;;;13.18;80.10;100623.23;1734523;81;20969;-39
2021/06/03 09:52:33;;;;;;;10.38;2.00;;;;;;;13.19;78.93;100642.67;1735229;81;20925;-41
2021/06/03 09:55:09;;;;;;;5.75;2.17;;;;;;;13.16;79.04;100638.86;1735223;81;20929;-39
2021/06/03 09:57:39;;;;;;;6.97;1.90;;;;;;;13.16;79.45;100632.83;1735245;81;21982;-41
2021/06/03 10:00:11;;;;;;;3.75;1.65;;;;;;;13.17;79.85;100638.42;1735126;82;20980;-39
2021/06/03 10:02:44;;;;;;;5.37;1.90;;;;;;;13.17;79.27;100641.86;1735249;82;20941;-38
2021/06/03 10:05:17;;;;;;;7.05;1.90;;;;;;;13.16;79.11;100637.55;1735130;82;21012;-38
2021/06/03 10:07:56;;;;;;;5.90;1.90;;;;;;;13.19;79.05;100645.27;1734868;82;20961;-39
2021/06/03 10:10:25;;;;;;;7.92;2.05;;;;;;;13.19;78.94;100648.33;1735177;81;21134;-39
2021/06/03 10:12:53;;;;;;;5.42;1.85;;;;;;;13.22;78.14;100655.58;1735169;82;20964;-39
2021/06/03 10:15:28;;;;;;;7.60;2.12;;;;;;;13.26;78.25;100655.50;1735283;82;20964;-38
2021/06/03 10:18:01;;;;;;;3.70;1.92;;;;;;;13.28;78.50;100661.53;1735135;82;20972;-38
2021/06/03 10:20:50;;;;;;;3.85;2.00;;;;;;;13.27;78.60;100664.56;1735169;82;20961;-38
2021/06/03 10:25:05;;;;;;;5.37;1.70;;;;;;;13.34;77.43;100659.61;1797613;79;22728;-40
2021/06/03 10:27:41;;;;;;;7.00;1.87;;;;;;;13.33;77.58;100668.30;1757438;80;21062;-38
2021/06/03 10:30:23;;;;;;;9.45;1.98;;;;;;;13.36;77.28;100661.71;1757408;81;21509;-40
2021/06/03 10:32:54;;;;;;;6.30;2.12;;;;;;;13.40;76.42;100670.76;1757257;81;20964;-38
2021/06/03 10:35:28;;;;;;;12.05;1.90;;;;;;;13.41;76.59;100668.09;1757495;81;20983;-39
2021/06/03 10:37:54;;;;;;;7.65;1.72;;;;;;;13.42;76.62;100677.61;1695169;83;21504;-40
2021/06/03 10:40:30;;;;;;;8.18;1.90;;;;;;;13.41;75.86;100679.80;1724128;82;21580;-40
2021/06/03 10:42:57;;;;;;;16.23;1.90;;;;;;;13.43;76.01;100686.30;1724035;81;21142;-39
2021/06/03 10:45:25;;;;;;;2.20;1.40;;;;;;;13.42;75.72;100688.00;1723966;83;20939;-40
2021/06/03 10:47:53;;;;;;;8.00;1.62;;;;;;;13.43;76.16;100688.44;1722550;83;21034;-38
2021/06/03 10:50:24;;;;;;;4.55;2.05;;;;;;;13.44;76.04;100692.75;1697833;84;21565;-38
2021/06/03 10:52:52;;;;;;;2.45;1.50;;;;;;;13.44;75.84;100703.15;1685471;84;21634;-38
2021/06/03 10:55:30;;;;;;;7.40;1.77;;;;;;;13.46;76.04;100701.36;1708435;84;21164;-39
2021/06/03 10:58:00;;;;;;;7.95;1.75;;;;;;;13.46;76.46;100718.26;1708464;84;21010;-39
2021/06/03 11:00:31;;;;;;;8.60;2.00;;;;;;;13.42;77.40;100714.00;1708508;84;21063;-38
2021/06/03 11:03:03;;;;;;;2.25;1.37;;;;;;;13.37;78.42;100726.28;1708481;84;21043;-41
2021/06/03 11:05:34;;;;;;;9.93;1.82;;;;;;;13.27;79.65;100728.72;1708391;83;20932;-38
2021/06/03 11:08:42;;;;;;;4.40;1.50;;;;;;;13.12;80.49;100729.50;1706165;82;21043;-39
2021/06/03 11:45:17;;;;;;;8.10;2.45;;;;;;;12.35;88.13;100791.38;1812163;78;22737;-39
2021/06/03 11:47:59;;;;;;;4.30;2.02;;;;;;;12.32;88.76;100789.28;1757638;80;20940;-40
2021/06/03 11:50:29;;;;;;;4.97;1.85;;;;;;;12.21;88.24;100797.28;1747935;80;21122;-39
2021/06/03 11:53:03;;;;;;;2.90;2.45;;;;;;;12.13;89.33;100797.88;1759600;80;20980;-39
2021/06/03 11:55:48;;;;;;;3.47;2.05;;;;;;;12.06;89.86;100816.17;1749235;80;20909;-39
2021/06/03 11:58:24;;;;;;;3.17;1.52;;;;;;;12.04;89.80;100826.15;1746349;80;21006;-37
2021/06/03 12:25:59;;;;;;;15.03;2.37;;;;;;;12.19;82.12;100806.41;1818969;77;26376;-37
2021/06/03 12:28:29;;;;;;;4.45;1.70;;;;;;;12.29;81.61;100820.06;1780602;79;21006;-39
2021/06/03 12:30:56;;;;;;;2.65;1.40;;;;;;;12.44;80.84;100820.63;1748277;80;21237;-37
2021/06/03 12:33:26;;;;;;;5.65;1.52;;;;;;;12.56;80.04;100819.52;1777604;79;21242;-40
2021/06/03 12:36:03;;;;;;;3.55;1.30;;;;;;;12.64;79.82;100817.17;1774273;80;20983;-39